LFAC

Calais-Dunkerque Airport

Airport
ICAO code
LFAC
IATA Code
CQF
Summary
ICAO Region
EUR
ICAO Territory
Location

, Nord-Pas-de-Calais

Serving
Calais
Elevation
12 ft
Coordinates
50° 57' 44" N , 1° 57' 17" E
Metar
LFAC 301600Z AUTO 33009KT 300V360 9999 FEW017 BKN070 BKN080 16/12 Q1010

Runways

Designator Length Width Surface Rops
6/24 1535 45 ASP Yes/Yes

Airport map

Aerial View

SKYbrary Partners:

Safety knowledge contributed by: